Time;durP1;ratioP1;P1;durP2;ratioP2;P2;SDS_P1;SDS_P2;PMS_P1;PMS_P2;Temp;Humidity;BMP_temperature;BMP_pressure;BME280_temperature;BME280_humidity;BME280_pressure;Samples;Min_cycle;Max_cycle;Signal;HPM_P1;HPM_P2
2021/12/27 00:02:35;;;;;;;3.28;2.10;;;;;;;-4.16;100.00;100408.34;6246394;28;20054;-77
2021/12/27 00:05:36;;;;;;;3.30;2.13;;;;;;;-4.12;100.00;100398.06;6245764;28;20061;-77
2021/12/27 00:08:39;;;;;;;3.38;1.48;;;;;;;-4.06;100.00;100394.66;6246891;28;20068;-77
2021/12/27 00:11:41;;;;;;;6.32;2.33;;;;;;;-4.09;100.00;100403.22;6246806;28;20046;-76
2021/12/27 00:14:44;;;;;;;2.78;2.00;;;;;;;-4.04;100.00;100405.78;6247289;28;20042;-77
2021/12/27 00:17:47;;;;;;;5.40;2.03;;;;;;;-3.99;100.00;100395.53;6241314;28;20443;-77
2021/12/27 00:20:48;;;;;;;4.47;1.55;;;;;;;-4.02;100.00;100392.94;6247642;28;20053;-77
2021/12/27 00:23:50;;;;;;;5.95;2.17;;;;;;;-4.01;100.00;100384.38;6247342;28;20054;-76
2021/12/27 00:26:52;;;;;;;2.70;1.33;;;;;;;-3.99;100.00;100380.13;6247616;28;20049;-77
2021/12/27 00:29:55;;;;;;;13.65;2.63;;;;;;;-3.97;100.00;100383.53;6247012;28;20161;-78
2021/12/27 00:32:56;;;;;;;5.40;2.65;;;;;;;-3.96;100.00;100378.38;6245393;28;20416;-77
2021/12/27 00:35:57;;;;;;;6.95;1.95;;;;;;;-3.92;100.00;100361.28;6247231;28;20053;-77
2021/12/27 00:38:59;;;;;;;6.82;1.90;;;;;;;-3.83;100.00;100361.28;6247225;28;20064;-77
2021/12/27 00:42:01;;;;;;;2.90;1.73;;;;;;;-3.86;100.00;100354.44;6246901;28;20053;-76
2021/12/27 00:45:04;;;;;;;2.42;1.48;;;;;;;-3.82;100.00;100345.00;6241608;28;20054;-77
2021/12/27 00:48:06;;;;;;;6.35;2.13;;;;;;;-3.84;100.00;100351.88;6246803;28;20049;-78
2021/12/27 00:51:08;;;;;;;3.05;1.45;;;;;;;-3.86;100.00;100346.75;6246975;28;20045;-77
2021/12/27 00:54:10;;;;;;;3.58;2.00;;;;;;;-3.82;100.00;100339.88;6246040;28;20518;-77
2021/12/27 00:57:11;;;;;;;6.50;1.65;;;;;;;-3.88;100.00;100333.03;6246810;28;20520;-77
2021/12/27 01:00:17;;;;;;;3.17;2.35;;;;;;;-3.97;100.00;100319.38;6246747;28;20049;-76
2021/12/27 01:03:20;;;;;;;4.45;2.40;;;;;;;-4.03;100.00;100327.09;6233547;28;20057;-76
2021/12/27 01:06:21;;;;;;;3.10;1.83;;;;;;;-4.08;100.00;100319.41;6222332;28;20054;-77
2021/12/27 01:09:32;;;;;;;2.63;1.88;;;;;;;-4.10;100.00;100316.81;6222138;28;20049;-76
2021/12/27 01:12:46;;;;;;;5.57;1.50;;;;;;;-4.12;100.00;100323.66;6222288;28;20286;-77
2021/12/27 01:16:10;;;;;;;2.42;1.83;;;;;;;-4.19;100.00;100321.94;6222159;28;20069;-77
2021/12/27 01:19:11;;;;;;;2.00;1.80;;;;;;;-4.11;100.00;100317.66;6222250;28;20131;-76
2021/12/27 01:22:16;;;;;;;7.43;3.08;;;;;;;-4.07;100.00;100318.53;6220483;28;20429;-76
2021/12/27 01:25:19;;;;;;;4.82;2.50;;;;;;;-4.01;100.00;100310.81;6222456;28;20058;-77
2021/12/27 01:28:21;;;;;;;1.75;1.05;;;;;;;-3.96;100.00;100306.53;6222004;28;20045;-77
2021/12/27 01:31:24;;;;;;;4.78;2.17;;;;;;;-3.89;100.00;100308.25;6221860;28;20057;-76
2021/12/27 01:34:26;;;;;;;3.30;1.85;;;;;;;-3.88;100.00;100303.97;6238643;28;20076;-75
2021/12/27 01:37:28;;;;;;;8.30;2.67;;;;;;;-3.89;100.00;100305.69;6246290;28;20056;-75
2021/12/27 01:40:30;;;;;;;4.60;1.63;;;;;;;-3.84;100.00;100308.22;6246086;28;20768;-75
2021/12/27 01:43:33;;;;;;;7.07;3.17;;;;;;;-3.79;100.00;100311.63;6223882;28;20064;-75
2021/12/27 01:46:36;;;;;;;3.22;1.90;;;;;;;-3.69;100.00;100322.75;6246205;28;20489;-75
2021/12/27 01:49:38;;;;;;;8.45;2.80;;;;;;;-3.73;100.00;100318.47;6246324;28;20481;-75
2021/12/27 01:52:39;;;;;;;4.68;2.17;;;;;;;-3.69;100.00;100309.91;6245961;28;20045;-75
2021/12/27 01:55:41;;;;;;;4.75;2.08;;;;;;;-3.58;100.00;100303.03;6246488;28;20049;-76
2021/12/27 01:58:44;;;;;;;2.55;1.95;;;;;;;-3.62;100.00;100302.19;6246033;28;20045;-76
2021/12/27 02:01:46;;;;;;;3.47;1.48;;;;;;;-3.62;100.00;100297.06;6245944;28;20421;-75
2021/12/27 02:04:48;;;;;;;3.35;1.65;;;;;;;-3.54;100.00;100302.19;6242598;28;20049;-75
2021/12/27 02:07:49;;;;;;;2.45;1.27;;;;;;;-3.53;100.00;100306.44;6250351;28;20049;-75
2021/12/27 02:10:51;;;;;;;2.00;1.40;;;;;;;-3.54;100.00;100299.59;6250133;28;20049;-75
2021/12/27 02:13:53;;;;;;;1.65;1.50;;;;;;;-3.48;100.00;100291.03;6250283;28;20055;-76
2021/12/27 02:16:55;;;;;;;3.60;2.30;;;;;;;-3.52;100.00;100285.03;6250443;28;20053;-76
2021/12/27 02:19:58;;;;;;;3.28;2.00;;;;;;;-3.43;100.00;100281.59;6249981;28;20056;-75
2021/12/27 02:23:02;;;;;;;5.07;2.78;;;;;;;-3.41;100.00;100280.69;6250166;28;20053;-75
2021/12/27 02:26:04;;;;;;;1.85;1.75;;;;;;;-3.51;100.00;100280.75;6250287;28;20060;-75
2021/12/27 02:29:07;;;;;;;8.68;3.13;;;;;;;-3.50;100.00;100279.88;6250120;28;20053;-75
2021/12/27 02:32:09;;;;;;;3.50;2.50;;;;;;;-3.49;100.00;100285.03;6249762;28;20409;-76
2021/12/27 02:35:18;;;;;;;4.70;2.67;;;;;;;-3.50;100.00;100285.88;6248415;28;20060;-75
2021/12/27 02:38:21;;;;;;;5.05;2.70;;;;;;;-3.38;100.00;100279.84;6250120;28;20049;-76
2021/12/27 02:41:23;;;;;;;3.90;1.88;;;;;;;-3.44;100.00;100287.59;6249543;28;20049;-75
2021/12/27 02:44:24;;;;;;;4.00;1.63;;;;;;;-3.49;100.00;100279.91;6249812;28;20507;-76
2021/12/27 02:47:25;;;;;;;3.78;1.60;;;;;;;-3.47;100.00;100267.03;6249370;28;20057;-76
2021/12/27 02:50:29;;;;;;;5.32;2.60;;;;;;;-3.45;100.00;100268.75;6249592;28;20049;-76
2021/12/27 02:53:31;;;;;;;2.63;1.52;;;;;;;-3.45;100.00;100270.44;6249285;28;20138;-75
2021/12/27 02:56:33;;;;;;;3.88;2.17;;;;;;;-3.48;100.00;100268.75;6249367;28;20049;-76
2021/12/27 02:59:34;;;;;;;4.13;2.47;;;;;;;-3.50;100.00;100264.47;6249306;28;20046;-75
2021/12/27 03:02:37;;;;;;;2.85;1.75;;;;;;;-3.48;100.00;100261.06;6249255;28;20053;-75
2021/12/27 03:05:43;;;;;;;6.05;3.03;;;;;;;-3.46;100.00;100261.03;6233725;28;20061;-75
2021/12/27 03:08:46;;;;;;;4.13;2.63;;;;;;;-3.51;100.00;100250.78;6224467;28;20046;-76
2021/12/27 03:11:47;;;;;;;11.15;3.00;;;;;;;-3.44;100.00;100257.63;6224446;28;20088;-75
2021/12/27 03:14:49;;;;;;;3.03;2.55;;;;;;;-3.46;100.00;100255.91;6223595;28;20060;-76
2021/12/27 03:17:53;;;;;;;5.03;2.92;;;;;;;-3.39;100.00;100237.03;6223514;28;20065;-76
2021/12/27 03:20:57;;;;;;;2.45;2.25;;;;;;;-3.38;100.00;100238.75;6224286;28;20046;-76
2021/12/27 03:23:58;;;;;;;5.20;3.13;;;;;;;-3.38;100.00;100246.44;6223986;28;20452;-76
2021/12/27 03:26:59;;;;;;;3.60;2.17;;;;;;;-3.37;100.00;100243.88;6224073;28;20054;-75
2021/12/27 03:30:01;;;;;;;4.32;2.45;;;;;;;-3.32;100.00;100241.28;6224163;28;20046;-75
2021/12/27 03:33:03;;;;;;;6.00;2.30;;;;;;;-3.30;100.00;100243.84;6224152;28;20133;-75
2021/12/27 03:36:08;;;;;;;3.83;2.78;;;;;;;-3.29;100.00;100232.72;6234061;28;20057;-74
2021/12/27 03:39:11;;;;;;;3.33;2.47;;;;;;;-3.25;100.00;100231.84;6243628;28;20159;-75
2021/12/27 03:42:12;;;;;;;6.30;1.77;;;;;;;-3.23;100.00;100228.38;6236235;28;20057;-76
2021/12/27 03:45:14;;;;;;;3.10;1.98;;;;;;;-3.21;100.00;100212.97;6247850;28;20524;-76
2021/12/27 03:48:15;;;;;;;4.72;2.00;;;;;;;-3.22;100.00;100218.97;6248276;28;20416;-76
2021/12/27 03:51:18;;;;;;;3.45;2.53;;;;;;;-3.19;100.00;100222.38;6246973;28;20053;-76
2021/12/27 03:54:19;;;;;;;3.80;1.95;;;;;;;-3.20;100.00;100224.94;6247836;28;20045;-75
2021/12/27 03:57:20;;;;;;;3.25;2.13;;;;;;;-3.20;100.00;100225.81;6247686;28;20464;-75
2021/12/27 04:00:44;;;;;;;5.28;3.53;;;;;;;-3.20;100.00;100222.38;6247586;28;20053;-76
2021/12/27 04:03:48;;;;;;;4.90;2.50;;;;;;;-3.18;100.00;100220.63;6240532;28;20049;-75
2021/12/27 04:06:51;;;;;;;5.57;2.10;;;;;;;-3.18;100.00;100213.81;6235728;28;20053;-75
2021/12/27 04:09:52;;;;;;;2.75;1.95;;;;;;;-3.18;100.00;100200.09;6243709;28;20050;-76
2021/12/27 04:12:53;;;;;;;11.85;2.35;;;;;;;-3.19;100.00;100194.09;6247695;28;20053;-76
2021/12/27 04:15:55;;;;;;;7.35;3.72;;;;;;;-3.16;100.00;100204.38;6247623;28;20060;-74
2021/12/27 04:18:56;;;;;;;2.85;1.90;;;;;;;-3.09;100.00;100200.91;6247122;28;20053;-76
2021/12/27 04:21:59;;;;;;;6.50;2.92;;;;;;;-3.10;100.00;100206.88;6247290;28;20049;-76
2021/12/27 04:25:00;;;;;;;7.25;3.38;;;;;;;-3.06;100.00;100194.88;6247279;28;20049;-75
2021/12/27 04:28:02;;;;;;;3.38;2.75;;;;;;;-3.07;100.00;100206.88;6246989;28;20057;-75
2021/12/27 04:31:03;;;;;;;5.18;2.38;;;;;;;-3.04;100.00;100205.13;6247099;28;20049;-76
2021/12/27 04:34:05;;;;;;;4.50;2.38;;;;;;;-3.01;100.00;100198.25;6245659;28;20049;-76
2021/12/27 04:37:07;;;;;;;9.45;2.97;;;;;;;-3.05;100.00;100191.44;6246943;28;20041;-75
2021/12/27 04:40:12;;;;;;;3.22;2.05;;;;;;;-3.02;100.00;100188.84;6246775;28;20046;-76
2021/12/27 04:43:16;;;;;;;3.50;2.55;;;;;;;-3.03;100.00;100182.00;6246957;28;20415;-75
2021/12/27 04:46:18;;;;;;;2.78;1.98;;;;;;;-2.97;100.00;100183.69;6246786;28;20485;-75
2021/12/27 04:49:19;;;;;;;6.07;2.90;;;;;;;-2.98;100.00;100172.56;6241861;28;20485;-76
2021/12/27 04:52:22;;;;;;;3.83;2.85;;;;;;;-2.96;100.00;100172.53;6246471;28;20045;-75
2021/12/27 04:55:24;;;;;;;10.90;4.03;;;;;;;-2.96;100.00;100175.94;6246976;28;20049;-76
2021/12/27 04:58:26;;;;;;;4.15;1.88;;;;;;;-2.94;100.00;100171.66;6246622;28;20060;-75
2021/12/27 05:01:27;;;;;;;3.30;1.95;;;;;;;-2.95;100.00;100175.09;6246528;28;20053;-75
2021/12/27 05:04:29;;;;;;;8.68;2.70;;;;;;;-2.93;100.00;100165.66;6230152;28;20056;-75
2021/12/27 05:07:31;;;;;;;7.15;3.03;;;;;;;-2.95;100.00;100167.41;6243301;28;20096;-75
2021/12/27 05:10:33;;;;;;;4.00;2.38;;;;;;;-2.92;100.00;100163.94;6224831;28;20054;-75
2021/12/27 05:13:35;;;;;;;5.13;1.98;;;;;;;-2.90;100.00;100159.66;6222292;28;20050;-75
2021/12/27 05:16:36;;;;;;;4.00;2.78;;;;;;;-2.91;100.00;100160.50;6222180;28;20050;-75
2021/12/27 05:19:37;;;;;;;10.88;2.25;;;;;;;-2.89;100.00;100166.50;6222112;28;20053;-75
2021/12/27 05:22:41;;;;;;;7.75;3.13;;;;;;;-2.77;100.00;100165.50;6222069;28;20417;-75
2021/12/27 05:25:42;;;;;;;5.75;3.20;;;;;;;-2.81;100.00;100157.84;6221924;28;20417;-76
2021/12/27 05:28:43;;;;;;;3.97;2.58;;;;;;;-2.85;100.00;100156.16;6225078;28;20060;-75
2021/12/27 05:31:45;;;;;;;8.90;3.10;;;;;;;-2.81;100.00;100157.00;6243985;28;20456;-75
2021/12/27 05:34:46;;;;;;;4.15;2.72;;;;;;;-2.76;100.00;100154.38;6246560;28;20084;-75
2021/12/27 05:37:49;;;;;;;3.45;2.33;;;;;;;-2.74;100.00;100150.06;6246149;28;20524;-76
2021/12/27 05:40:52;;;;;;;9.27;3.05;;;;;;;-2.73;100.00;100152.63;6250012;28;20052;-75
2021/12/27 05:43:54;;;;;;;5.50;3.22;;;;;;;-2.70;100.00;100154.31;6250930;28;20053;-76
2021/12/27 05:46:55;;;;;;;7.85;3.08;;;;;;;-2.73;100.00;100155.19;6251013;28;20060;-75
2021/12/27 05:49:57;;;;;;;5.90;3.08;;;;;;;-2.73;100.00;100142.34;6250405;28;20042;-75
2021/12/27 05:52:59;;;;;;;4.10;2.38;;;;;;;-2.73;100.00;100144.06;6250840;28;20080;-75
2021/12/27 05:56:01;;;;;;;5.30;2.22;;;;;;;-2.66;100.00;100133.72;6251105;28;20049;-75
2021/12/27 05:59:03;;;;;;;6.78;3.47;;;;;;;-2.71;100.00;100127.75;6250517;28;20417;-75
2021/12/27 06:02:04;;;;;;;6.03;3.28;;;;;;;-2.72;100.00;100125.22;6248582;28;20049;-75
2021/12/27 06:05:07;;;;;;;6.78;3.38;;;;;;;-2.72;100.00;100122.66;6245175;28;20497;-75
2021/12/27 06:08:10;;;;;;;6.72;3.50;;;;;;;-2.72;100.00;100128.63;6250473;28;20045;-75
2021/12/27 06:11:11;;;;;;;3.58;3.03;;;;;;;-2.78;100.00;100127.81;6248724;28;20049;-76
2021/12/27 06:14:13;;;;;;;4.40;2.50;;;;;;;-2.75;100.00;100130.38;6250536;28;20049;-75
2021/12/27 06:17:14;;;;;;;3.28;2.53;;;;;;;-2.79;100.00;100129.53;6250260;28;20059;-75
2021/12/27 06:20:17;;;;;;;3.50;2.15;;;;;;;-2.84;100.00;100116.72;6250087;28;20049;-76
2021/12/27 06:23:20;;;;;;;6.95;3.22;;;;;;;-2.85;100.00;100122.75;6250149;28;20049;-76
2021/12/27 06:26:21;;;;;;;4.57;2.88;;;;;;;-2.85;100.00;100107.31;6250200;28;20057;-75
2021/12/27 06:29:23;;;;;;;7.13;3.55;;;;;;;-2.83;100.00;100117.56;6250019;28;20041;-76
2021/12/27 06:32:24;;;;;;;3.13;1.67;;;;;;;-2.85;100.00;100107.31;6231183;28;20045;-75
2021/12/27 06:35:26;;;;;;;6.93;3.97;;;;;;;-2.82;100.00;100098.72;6225420;28;20493;-76
2021/12/27 06:38:28;;;;;;;5.93;3.67;;;;;;;-2.80;100.00;100109.84;6242281;28;20515;-75
2021/12/27 06:41:30;;;;;;;7.35;4.18;;;;;;;-2.75;100.00;100102.09;6249608;28;20053;-76
2021/12/27 06:44:31;;;;;;;4.18;2.78;;;;;;;-2.77;100.00;100093.53;6249718;28;20049;-75
2021/12/27 06:47:32;;;;;;;8.40;3.65;;;;;;;-2.76;100.00;100098.66;6249817;28;20634;-76
2021/12/27 06:50:34;;;;;;;6.38;3.28;;;;;;;-2.73;100.00;100098.63;6249276;28;20041;-75
2021/12/27 06:53:37;;;;;;;4.05;3.38;;;;;;;-2.69;100.00;100096.88;6249740;28;20049;-75
2021/12/27 06:56:38;;;;;;;7.22;3.63;;;;;;;-2.65;100.00;100096.84;6249410;28;20049;-76
2021/12/27 06:59:39;;;;;;;7.43;2.90;;;;;;;-2.65;100.00;100104.53;6247791;28;20049;-75
2021/12/27 07:02:41;;;;;;;7.35;3.75;;;;;;;-2.62;100.00;100101.94;6224607;28;20050;-75
2021/12/27 07:05:43;;;;;;;8.73;3.92;;;;;;;-2.63;100.00;100101.97;6224549;28;20509;-76
2021/12/27 07:08:47;;;;;;;6.10;2.92;;;;;;;-2.62;100.00;100111.41;6224602;28;20057;-76
2021/12/27 07:11:48;;;;;;;6.55;3.50;;;;;;;-2.59;100.00;100106.19;6224335;28;20050;-76
2021/12/27 07:14:50;;;;;;;6.63;3.83;;;;;;;-2.58;100.00;100106.19;6224524;28;20049;-76
2021/12/27 07:17:51;;;;;;;6.63;3.40;;;;;;;-2.55;100.00;100098.44;6224155;28;20081;-75
2021/12/27 07:20:54;;;;;;;10.30;3.88;;;;;;;-2.51;100.00;100098.41;6224450;28;20631;-76
2021/12/27 07:23:56;;;;;;;6.90;3.40;;;;;;;-2.50;100.00;100098.38;6224143;28;20144;-75
2021/12/27 07:26:57;;;;;;;6.05;3.13;;;;;;;-2.49;100.00;100101.84;6224176;28;20508;-75
2021/12/27 07:29:59;;;;;;;6.43;3.78;;;;;;;-2.42;100.00;100098.31;6224821;28;20421;-75
2021/12/27 07:33:00;;;;;;;5.28;2.85;;;;;;;-2.47;100.00;100093.22;6224230;28;20136;-75
2021/12/27 07:36:02;;;;;;;4.93;4.00;;;;;;;-2.50;100.00;100100.09;6223994;28;20054;-76
2021/12/27 07:39:05;;;;;;;9.05;3.75;;;;;;;-2.50;100.00;100102.69;6223747;28;20046;-75
2021/12/27 07:42:07;;;;;;;8.63;3.05;;;;;;;-2.49;100.00;100099.25;6223689;28;20072;-75
2021/12/27 07:45:10;;;;;;;6.07;2.80;;;;;;;-2.46;100.00;100110.34;6223741;28;20477;-75
2021/12/27 07:48:12;;;;;;;10.02;4.10;;;;;;;-2.47;100.00;100108.66;6223721;28;20057;-76
2021/12/27 07:51:13;;;;;;;8.50;4.90;;;;;;;-2.46;100.00;100114.66;6223221;28;20058;-76
2021/12/27 07:54:16;;;;;;;7.78;4.13;;;;;;;-2.42;100.00;100103.47;6223728;28;20050;-74
2021/12/27 07:57:18;;;;;;;9.50;4.95;;;;;;;-2.42;100.00;100100.88;6223132;28;20053;-75
2021/12/27 08:00:19;;;;;;;4.60;3.63;;;;;;;-2.40;100.00;100101.75;6239979;28;20041;-74
2021/12/27 08:03:21;;;;;;;5.38;3.33;;;;;;;-2.37;100.00;100106.81;6242608;28;20497;-76
2021/12/27 08:06:22;;;;;;;3.63;2.65;;;;;;;-2.36;100.00;100098.25;6239895;28;20049;-75
2021/12/27 08:09:26;;;;;;;6.28;3.42;;;;;;;-2.36;100.00;100098.25;6242942;28;20053;-75
2021/12/27 08:12:28;;;;;;;5.55;3.35;;;;;;;-2.36;100.00;100095.69;6247302;28;20050;-75
2021/12/27 08:15:29;;;;;;;9.07;5.25;;;;;;;-2.35;100.00;100100.81;6240125;28;20398;-76
2021/12/27 08:18:31;;;;;;;9.68;4.32;;;;;;;-2.32;100.00;100113.66;6247411;28;20072;-75
2021/12/27 08:21:33;;;;;;;18.08;3.85;;;;;;;-2.27;100.00;100103.31;6247300;28;20053;-75
2021/12/27 08:24:35;;;;;;;8.52;3.33;;;;;;;-2.25;100.00;100093.84;6241054;28;20045;-76
2021/12/27 08:27:40;;;;;;;7.28;4.13;;;;;;;-2.23;100.00;100097.22;6246550;28;20489;-76
2021/12/27 08:30:42;;;;;;;6.85;4.25;;;;;;;-2.23;100.00;100099.81;6222377;28;20053;-74
2021/12/27 08:33:43;;;;;;;8.52;4.95;;;;;;;-2.18;100.00;100090.34;6222854;28;20054;-75
2021/12/27 08:36:44;;;;;;;8.13;3.20;;;;;;;-2.18;100.00;100086.88;6222552;28;20050;-75
2021/12/27 08:39:47;;;;;;;5.65;3.58;;;;;;;-2.14;100.00;100089.41;6220681;28;20046;-76
2021/12/27 08:42:49;;;;;;;5.10;4.40;;;;;;;-2.07;100.00;100079.91;6221434;28;20060;-76
2021/12/27 08:45:50;;;;;;;7.35;3.63;;;;;;;-2.07;100.00;100085.03;6232872;28;20132;-75
2021/12/27 08:48:51;;;;;;;7.43;3.75;;;;;;;-2.02;100.00;100092.69;6243267;28;20060;-76
2021/12/27 08:51:53;;;;;;;9.98;5.07;;;;;;;-1.97;100.00;100093.50;6246074;28;20057;-76
2021/12/27 08:54:55;;;;;;;6.97;4.22;;;;;;;-1.96;100.00;100087.47;6246943;28;20056;-75
2021/12/27 08:57:57;;;;;;;9.07;5.20;;;;;;;-1.97;100.00;100080.63;6238364;28;20394;-75
2021/12/27 09:00:58;;;;;;;4.85;3.30;;;;;;;-1.90;100.00;100089.97;6220768;28;20042;-77
2021/12/27 09:03:59;;;;;;;4.25;2.75;;;;;;;-1.90;100.00;100085.69;6236634;28;20045;-76
2021/12/27 09:07:01;;;;;;;6.90;3.97;;;;;;;-1.84;100.00;100074.44;6224666;28;20057;-76
2021/12/27 09:10:06;;;;;;;6.30;3.72;;;;;;;-1.88;100.00;100076.19;6221813;28;20046;-76
2021/12/27 09:13:07;;;;;;;6.85;3.78;;;;;;;-1.82;100.00;100085.56;6222184;28;20049;-75
2021/12/27 09:16:11;;;;;;;7.22;3.65;;;;;;;-1.79;100.00;100082.94;6226934;28;20061;-76
2021/12/27 09:19:12;;;;;;;5.68;3.70;;;;;;;-1.79;100.00;100085.53;6227087;28;20080;-76
2021/12/27 09:22:15;;;;;;;7.65;3.78;;;;;;;-1.73;100.00;100082.84;6226815;28;20046;-75
2021/12/27 09:25:18;;;;;;;5.32;3.97;;;;;;;-1.73;100.00;100079.44;6226733;28;20191;-76
2021/12/27 09:28:19;;;;;;;4.47;2.33;;;;;;;-1.68;100.00;100073.38;6227856;28;20046;-75
2021/12/27 09:31:20;;;;;;;6.03;4.47;;;;;;;-1.66;100.00;100074.19;6226361;28;20046;-76
2021/12/27 09:34:22;;;;;;;7.93;3.97;;;;;;;-1.64;100.00;100084.44;6227582;28;20046;-75
2021/12/27 09:37:23;;;;;;;6.43;3.55;;;;;;;-1.63;100.00;100078.44;6240442;28;20053;-75
2021/12/27 09:40:27;;;;;;;5.80;3.33;;;;;;;-1.56;100.00;100077.47;6237664;28;20485;-76
2021/12/27 09:43:29;;;;;;;5.68;4.35;;;;;;;-1.55;100.00;100081.75;6249270;28;20060;-76
2021/12/27 09:46:30;;;;;;;10.50;4.25;;;;;;;-1.47;100.00;100073.91;6237085;28;20057;-75
2021/12/27 09:49:32;;;;;;;5.57;3.58;;;;;;;-1.45;100.00;100072.16;6244981;28;21346;-75
2021/12/27 09:52:33;;;;;;;6.00;3.60;;;;;;;-1.41;100.00;100068.66;6235778;28;20050;-76
2021/12/27 09:55:36;;;;;;;6.63;3.58;;;;;;;-1.37;100.00;100071.16;6236143;28;20054;-76
2021/12/27 09:58:39;;;;;;;6.47;3.45;;;;;;;-1.36;100.00;100072.88;6234332;28;20727;-76
2021/12/27 10:01:40;;;;;;;9.85;4.15;;;;;;;-1.31;100.00;100072.81;6241762;28;20045;-75
2021/12/27 10:04:45;;;;;;;5.85;2.72;;;;;;;-1.31;100.00;100068.50;6235249;28;20041;-76
2021/12/27 10:07:46;;;;;;;13.25;5.07;;;;;;;-1.37;100.00;100068.59;6242335;28;20057;-76
2021/12/27 10:10:49;;;;;;;12.50;3.75;;;;;;;-1.38;100.00;100069.47;6241808;28;20049;-76
2021/12/27 10:14:05;;;;;;;7.53;3.38;;;;;;;-1.36;100.00;100069.47;6247029;28;20049;-76
2021/12/27 10:17:11;;;;;;;5.70;3.67;;;;;;;-1.38;100.00;100069.47;6247418;28;20056;-75
2021/12/27 10:20:14;;;;;;;6.93;3.83;;;;;;;-1.38;100.00;100061.72;6248490;28;20512;-76
2021/12/27 10:23:18;;;;;;;10.65;5.28;;;;;;;-1.40;100.00;100049.75;6245615;28;20076;-76
2021/12/27 10:26:21;;;;;;;4.28;3.47;;;;;;;-1.38;100.00;100053.16;6238261;28;20405;-76
2021/12/27 10:29:26;;;;;;;9.55;4.07;;;;;;;-1.34;100.00;100047.06;6225807;28;20459;-76
2021/12/27 10:32:27;;;;;;;8.30;4.75;;;;;;;-1.38;100.00;100045.41;6238352;28;20048;-75
2021/12/27 10:35:34;;;;;;;9.30;4.63;;;;;;;-1.37;100.00;100034.22;6235796;28;20053;-75
2021/12/27 10:38:37;;;;;;;6.88;4.05;;;;;;;-1.33;100.00;100023.00;6235382;28;20124;-76
2021/12/27 10:41:40;;;;;;;15.75;4.30;;;;;;;-1.27;100.00;100030.66;6240088;28;20045;-76
2021/12/27 10:44:42;;;;;;;8.32;4.43;;;;;;;-1.22;100.00;100023.69;6235424;28;20050;-75
2021/12/27 10:47:44;;;;;;;7.82;4.18;;;;;;;-1.19;100.00;100015.88;6232742;28;20583;-76
2021/12/27 10:50:46;;;;;;;6.63;3.58;;;;;;;-1.13;100.00;100018.38;6235578;28;20054;-75
2021/12/27 10:53:49;;;;;;;7.05;4.20;;;;;;;-1.05;100.00;100013.91;6232731;28;20424;-76
2021/12/27 10:56:54;;;;;;;10.13;4.90;;;;;;;-1.04;100.00;100013.06;6239079;28;20049;-76
2021/12/27 11:00:15;;;;;;;7.18;4.40;;;;;;;-0.94;100.00;100012.88;6239905;28;20081;-75
2021/12/27 11:03:33;;;;;;;6.82;4.68;;;;;;;-0.88;100.00;100008.44;6243058;28;20420;-76
2021/12/27 11:06:40;;;;;;;7.65;4.43;;;;;;;-0.81;100.00;99999.75;6242992;28;20046;-75
2021/12/27 11:09:42;;;;;;;13.93;4.90;;;;;;;-0.80;100.00;100004.00;6248854;28;20061;-75
2021/12/27 11:12:45;;;;;;;7.72;5.18;;;;;;;-0.81;100.00;99997.16;6238024;28;20049;-75
2021/12/27 11:15:46;;;;;;;7.53;4.60;;;;;;;-0.77;100.00;100006.53;6243205;28;20064;-74
2021/12/27 11:18:48;;;;;;;11.98;5.75;;;;;;;-0.74;100.00;99992.72;6239532;28;20053;-75
2021/12/27 11:21:50;;;;;;;9.10;4.85;;;;;;;-0.70;100.00;99985.78;6231701;28;20052;-75
2021/12/27 11:24:51;;;;;;;13.57;5.43;;;;;;;-0.72;100.00;99987.53;6239398;28;20412;-75
2021/12/27 11:27:55;;;;;;;8.90;4.38;;;;;;;-0.77;100.00;99977.31;6231864;28;20045;-75
2021/12/27 11:30:58;;;;;;;6.32;4.47;;;;;;;-0.79;100.00;99981.63;6233782;28;20524;-76
2021/12/27 11:34:03;;;;;;;9.10;4.82;;;;;;;-0.77;100.00;99987.63;6233835;28;20046;-75
2021/12/27 11:37:10;;;;;;;7.38;4.60;;;;;;;-0.70;100.00;99978.03;6238888;28;20056;-75
2021/12/27 11:40:15;;;;;;;12.13;5.22;;;;;;;-0.67;100.00;99965.09;6236172;28;20049;-75
2021/12/27 11:43:18;;;;;;;9.38;5.68;;;;;;;-0.65;100.00;99969.31;6244445;28;20057;-76
2021/12/27 11:46:21;;;;;;;9.55;4.57;;;;;;;-0.61;100.00;99955.47;6236945;28;20049;-75
2021/12/27 11:49:37;;;;;;;8.80;3.97;;;;;;;-0.47;100.00;99946.59;6238141;28;20425;-76
2021/12/27 11:52:42;;;;;;;9.23;4.78;;;;;;;-0.36;100.00;99939.50;6235451;28;20050;-74
2021/12/27 11:55:43;;;;;;;7.82;4.45;;;;;;;-0.28;100.00;99946.16;6241015;28;20061;-76
2021/12/27 11:58:50;;;;;;;9.18;4.65;;;;;;;-0.20;100.00;99952.91;6247644;28;20049;-75
2021/12/27 12:01:53;;;;;;;7.20;4.20;;;;;;;-0.22;100.00;99955.53;6247433;28;20075;-75
2021/12/27 12:04:57;;;;;;;7.05;3.97;;;;;;;-0.29;100.00;99967.69;6245214;28;20049;-76
2021/12/27 12:07:59;;;;;;;9.00;4.40;;;;;;;-0.26;100.00;99959.06;6244501;28;20053;-75
2021/12/27 12:11:02;;;;;;;10.07;4.88;;;;;;;-0.31;100.00;99951.41;6244957;28;20045;-75
2021/12/27 12:14:28;;;;;;;7.72;3.90;;;;;;;-0.27;100.00;99950.47;6233402;28;20049;-76
2021/12/27 12:17:37;;;;;;;8.68;4.97;;;;;;;-0.14;100.00;99943.25;6223496;28;20057;-76
2021/12/27 12:20:39;;;;;;;9.15;5.82;;;;;;;-0.08;100.00;99948.31;6232507;28;20053;-75
2021/12/27 12:23:54;;;;;;;10.02;5.72;;;;;;;-0.05;100.00;99943.06;6240511;28;20049;-76
2021/12/27 12:27:00;;;;;;;7.53;4.15;;;;;;;-0.03;100.00;99949.06;6239301;28;20042;-78
2021/12/27 12:30:03;;;;;;;11.10;5.82;;;;;;;0.07;100.00;99948.84;6246282;28;20525;-75
2021/12/27 12:33:07;;;;;;;8.88;5.35;;;;;;;0.09;100.00;99942.78;6241094;28;20053;-74
2021/12/27 12:36:11;;;;;;;9.13;5.07;;;;;;;0.17;100.00;99938.25;6243925;28;20045;-75
2021/12/27 12:39:12;;;;;;;7.75;4.25;;;;;;;0.22;100.00;99943.31;6241249;28;20057;-75
2021/12/27 12:42:19;;;;;;;9.88;6.20;;;;;;;0.27;100.00;99941.44;6235254;28;20038;-76
2021/12/27 12:45:30;;;;;;;7.40;4.38;;;;;;;0.25;100.00;99932.91;6239577;28;20041;-75
2021/12/27 12:48:31;;;;;;;10.80;4.25;;;;;;;0.22;100.00;99926.06;6237773;28;20060;-76
2021/12/27 12:51:35;;;;;;;11.98;4.72;;;;;;;0.23;100.00;99920.03;6239061;28;20417;-75
2021/12/27 12:54:40;;;;;;;10.50;4.10;;;;;;;0.21;100.00;99928.69;6234925;28;20049;-75
2021/12/27 12:57:48;;;;;;;9.48;5.68;;;;;;;0.23;100.00;99926.94;6236321;28;20079;-75
2021/12/27 13:00:50;;;;;;;9.02;4.38;;;;;;;0.22;100.00;99914.88;6241284;28;20046;-76
2021/12/27 13:03:56;;;;;;;12.38;4.93;;;;;;;0.24;100.00;99919.13;6245505;28;20394;-74
2021/12/27 13:06:57;;;;;;;13.30;4.63;;;;;;;0.25;100.00;99913.06;6241062;28;20053;-76
2021/12/27 13:10:00;;;;;;;9.63;4.78;;;;;;;0.28;100.00;99911.31;6245140;28;20056;-76
2021/12/27 13:13:16;;;;;;;8.93;4.47;;;;;;;0.28;100.00;99914.75;6245486;28;20428;-76
2021/12/27 13:16:19;;;;;;;9.32;4.95;;;;;;;0.27;100.00;99913.03;6229641;28;20041;-76
2021/12/27 13:19:21;;;;;;;6.78;4.88;;;;;;;0.25;100.00;99915.66;6235689;28;20053;-76
2021/12/27 13:22:38;;;;;;;9.27;4.80;;;;;;;0.23;100.00;99914.03;6243613;28;20064;-76
2021/12/27 13:25:41;;;;;;;9.38;3.67;;;;;;;0.21;100.00;99919.19;6246124;28;20050;-76
2021/12/27 13:28:44;;;;;;;10.23;4.38;;;;;;;0.21;100.00;99915.78;6239707;28;20512;-76
2021/12/27 13:31:47;;;;;;;9.60;4.55;;;;;;;0.19;100.00;99912.41;6235798;28;20053;-76
2021/12/27 13:34:48;;;;;;;7.95;4.57;;;;;;;0.22;100.00;99922.63;6245929;28;20056;-76
2021/12/27 13:37:49;;;;;;;10.18;4.97;;;;;;;0.17;100.00;99917.56;6245902;28;20064;-76
2021/12/27 13:40:53;;;;;;;5.90;3.85;;;;;;;0.22;100.00;99923.47;6245846;28;20061;-76
2021/12/27 13:43:58;;;;;;;11.90;4.32;;;;;;;0.16;100.00;99923.63;6245075;28;20053;-76
2021/12/27 13:47:03;;;;;;;8.85;4.82;;;;;;;0.16;100.00;99913.31;6239056;28;20080;-76
2021/12/27 13:50:06;;;;;;;9.10;5.50;;;;;;;0.17;100.00;99922.75;6234717;28;20049;-76
2021/12/27 13:53:12;;;;;;;8.32;4.82;;;;;;;0.21;100.00;99918.34;6229686;28;20053;-76
2021/12/27 13:56:15;;;;;;;14.85;5.28;;;;;;;0.19;100.00;99908.06;6236217;28;20045;-76
2021/12/27 13:59:19;;;;;;;11.35;5.63;;;;;;;0.18;100.00;99897.75;6237352;28;20057;-76
2021/12/27 14:02:21;;;;;;;11.00;4.90;;;;;;;0.20;100.00;99894.25;6241768;28;20437;-75
2021/12/27 14:05:27;;;;;;;9.98;4.80;;;;;;;0.21;100.00;99901.13;6239413;28;20042;-76